sensor_id;sensor_type;location;lat;lon;timestamp;P1;durP1;ratioP1;P2;durP2;ratioP2
22841;SDS011;11587;47.064;15.444;2023-03-14T00:00:13;0.40;;;0.40;;
22841;SDS011;11587;47.064;15.444;2023-03-14T00:02:40;0.40;;;0.40;;
22841;SDS011;11587;47.064;15.444;2023-03-14T00:05:06;0.40;;;0.40;;
22841;SDS011;11587;47.064;15.444;2023-03-14T00:07:36;0.40;;;0.40;;
22841;SDS011;11587;47.064;15.444;2023-03-14T00:10:12;0.40;;;0.40;;
22841;SDS011;11587;47.064;15.444;2023-03-14T00:12:39;0.40;;;0.40;;
22841;SDS011;11587;47.064;15.444;2023-03-14T00:15:05;0.40;;;0.40;;
22841;SDS011;11587;47.064;15.444;2023-03-14T00:17:32;0.40;;;0.40;;
22841;SDS011;11587;47.064;15.444;2023-03-14T00:19:58;0.40;;;0.40;;
22841;SDS011;11587;47.064;15.444;2023-03-14T00:22:30;0.40;;;0.40;;
22841;SDS011;11587;47.064;15.444;2023-03-14T00:24:57;0.40;;;0.40;;
22841;SDS011;11587;47.064;15.444;2023-03-14T00:27:23;0.40;;;0.40;;
22841;SDS011;11587;47.064;15.444;2023-03-14T00:29:49;0.40;;;0.40;;
22841;SDS011;11587;47.064;15.444;2023-03-14T00:32:16;0.40;;;0.40;;
22841;SDS011;11587;47.064;15.444;2023-03-14T00:34:42;0.20;;;0.20;;
22841;SDS011;11587;47.064;15.444;2023-03-14T00:37:08;0.20;;;0.20;;
22841;SDS011;11587;47.064;15.444;2023-03-14T00:39:34;0.20;;;0.20;;
22841;SDS011;11587;47.064;15.444;2023-03-14T00:42:00;0.20;;;0.20;;
22841;SDS011;11587;47.064;15.444;2023-03-14T00:44:26;0.20;;;0.20;;
22841;SDS011;11587;47.064;15.444;2023-03-14T00:46:52;0.20;;;0.20;;
22841;SDS011;11587;47.064;15.444;2023-03-14T00:49:18;0.20;;;0.20;;
22841;SDS011;11587;47.064;15.444;2023-03-14T00:51:44;0.20;;;0.20;;
22841;SDS011;11587;47.064;15.444;2023-03-14T00:54:10;0.20;;;0.20;;
22841;SDS011;11587;47.064;15.444;2023-03-14T00:56:36;0.20;;;0.20;;
22841;SDS011;11587;47.064;15.444;2023-03-14T00:59:02;0.20;;;0.20;;
22841;SDS011;11587;47.064;15.444;2023-03-14T01:01:28;0.20;;;0.20;;
22841;SDS011;11587;47.064;15.444;2023-03-14T01:03:55;0.20;;;0.20;;
22841;SDS011;11587;47.064;15.444;2023-03-14T01:06:22;0.20;;;0.20;;
22841;SDS011;11587;47.064;15.444;2023-03-14T01:08:48;0.20;;;0.20;;
22841;SDS011;11587;47.064;15.444;2023-03-14T01:11:19;0.20;;;0.20;;
22841;SDS011;11587;47.064;15.444;2023-03-14T01:13:45;0.20;;;0.20;;
22841;SDS011;11587;47.064;15.444;2023-03-14T01:16:12;0.20;;;0.20;;
22841;SDS011;11587;47.064;15.444;2023-03-14T01:18:39;0.20;;;0.20;;
22841;SDS011;11587;47.064;15.444;2023-03-14T01:21:19;0.20;;;0.20;;
22841;SDS011;11587;47.064;15.444;2023-03-14T01:23:46;0.20;;;0.20;;
22841;SDS011;11587;47.064;15.444;2023-03-14T01:26:13;0.20;;;0.20;;
22841;SDS011;11587;47.064;15.444;2023-03-14T01:28:39;0.20;;;0.20;;
22841;SDS011;11587;47.064;15.444;2023-03-14T01:31:06;0.20;;;0.20;;
22841;SDS011;11587;47.064;15.444;2023-03-14T01:33:32;0.20;;;0.20;;
22841;SDS011;11587;47.064;15.444;2023-03-14T01:35:59;0.20;;;0.20;;
22841;SDS011;11587;47.064;15.444;2023-03-14T01:38:27;0.20;;;0.20;;
22841;SDS011;11587;47.064;15.444;2023-03-14T01:40:53;0.20;;;0.20;;
22841;SDS011;11587;47.064;15.444;2023-03-14T01:43:19;0.20;;;0.20;;
22841;SDS011;11587;47.064;15.444;2023-03-14T01:51:05;0.20;;;0.20;;
22841;SDS011;11587;47.064;15.444;2023-03-14T01:53:32;0.20;;;0.20;;
22841;SDS011;11587;47.064;15.444;2023-03-14T01:55:59;0.20;;;0.20;;
22841;SDS011;11587;47.064;15.444;2023-03-14T01:58:25;0.30;;;0.30;;
22841;SDS011;11587;47.064;15.444;2023-03-14T02:00:53;0.20;;;0.20;;
22841;SDS011;11587;47.064;15.444;2023-03-14T02:03:20;0.20;;;0.20;;
22841;SDS011;11587;47.064;15.444;2023-03-14T02:05:47;0.20;;;0.20;;
22841;SDS011;11587;47.064;15.444;2023-03-14T02:08:14;0.20;;;0.20;;
22841;SDS011;11587;47.064;15.444;2023-03-14T02:10:46;0.20;;;0.20;;
22841;SDS011;11587;47.064;15.444;2023-03-14T02:13:13;0.20;;;0.20;;
22841;SDS011;11587;47.064;15.444;2023-03-14T02:15:40;0.20;;;0.20;;
22841;SDS011;11587;47.064;15.444;2023-03-14T02:18:06;0.20;;;0.20;;
22841;SDS011;11587;47.064;15.444;2023-03-14T02:23:20;0.20;;;0.20;;
22841;SDS011;11587;47.064;15.444;2023-03-14T02:25:55;0.20;;;0.20;;
22841;SDS011;11587;47.064;15.444;2023-03-14T02:28:24;0.20;;;0.20;;
22841;SDS011;11587;47.064;15.444;2023-03-14T02:30:50;0.20;;;0.20;;
22841;SDS011;11587;47.064;15.444;2023-03-14T02:33:17;0.20;;;0.20;;
22841;SDS011;11587;47.064;15.444;2023-03-14T02:35:45;0.20;;;0.20;;
22841;SDS011;11587;47.064;15.444;2023-03-14T02:38:17;0.20;;;0.20;;
22841;SDS011;11587;47.064;15.444;2023-03-14T02:40:45;0.20;;;0.20;;
22841;SDS011;11587;47.064;15.444;2023-03-14T02:43:12;0.20;;;0.20;;
22841;SDS011;11587;47.064;15.444;2023-03-14T02:45:42;0.20;;;0.20;;
22841;SDS011;11587;47.064;15.444;2023-03-14T02:48:11;0.20;;;0.20;;
22841;SDS011;11587;47.064;15.444;2023-03-14T02:50:38;0.40;;;0.40;;
22841;SDS011;11587;47.064;15.444;2023-03-14T02:53:04;0.40;;;0.40;;
22841;SDS011;11587;47.064;15.444;2023-03-14T02:55:30;0.40;;;0.40;;
22841;SDS011;11587;47.064;15.444;2023-03-14T02:57:56;0.20;;;0.20;;
22841;SDS011;11587;47.064;15.444;2023-03-14T03:00:22;0.20;;;0.20;;
22841;SDS011;11587;47.064;15.444;2023-03-14T03:02:49;0.20;;;0.20;;
22841;SDS011;11587;47.064;15.444;2023-03-14T03:05:15;0.20;;;0.20;;
22841;SDS011;11587;47.064;15.444;2023-03-14T03:07:41;0.20;;;0.20;;
22841;SDS011;11587;47.064;15.444;2023-03-14T03:10:07;0.20;;;0.20;;
22841;SDS011;11587;47.064;15.444;2023-03-14T03:12:33;0.20;;;0.20;;
22841;SDS011;11587;47.064;15.444;2023-03-14T03:14:59;0.20;;;0.20;;
22841;SDS011;11587;47.064;15.444;2023-03-14T03:17:25;0.20;;;0.20;;
22841;SDS011;11587;47.064;15.444;2023-03-14T03:19:51;0.20;;;0.20;;
22841;SDS011;11587;47.064;15.444;2023-03-14T03:22:17;0.20;;;0.20;;
22841;SDS011;11587;47.064;15.444;2023-03-14T03:24:43;0.20;;;0.20;;
22841;SDS011;11587;47.064;15.444;2023-03-14T03:27:09;0.20;;;0.20;;
22841;SDS011;11587;47.064;15.444;2023-03-14T03:29:35;0.20;;;0.20;;
22841;SDS011;11587;47.064;15.444;2023-03-14T03:32:01;0.40;;;0.40;;
22841;SDS011;11587;47.064;15.444;2023-03-14T03:34:27;0.40;;;0.40;;
22841;SDS011;11587;47.064;15.444;2023-03-14T03:36:57;0.40;;;0.40;;
22841;SDS011;11587;47.064;15.444;2023-03-14T03:39:23;0.40;;;0.40;;
22841;SDS011;11587;47.064;15.444;2023-03-14T03:41:49;0.40;;;0.40;;
22841;SDS011;11587;47.064;15.444;2023-03-14T03:44:15;0.40;;;0.40;;
22841;SDS011;11587;47.064;15.444;2023-03-14T03:46:41;0.40;;;0.40;;
22841;SDS011;11587;47.064;15.444;2023-03-14T03:49:07;0.40;;;0.40;;
22841;SDS011;11587;47.064;15.444;2023-03-14T03:51:33;0.40;;;0.40;;
22841;SDS011;11587;47.064;15.444;2023-03-14T03:53:59;0.40;;;0.40;;
22841;SDS011;11587;47.064;15.444;2023-03-14T03:56:25;0.40;;;0.40;;
22841;SDS011;11587;47.064;15.444;2023-03-14T03:58:51;0.40;;;0.40;;
22841;SDS011;11587;47.064;15.444;2023-03-14T04:01:17;0.40;;;0.40;;
22841;SDS011;11587;47.064;15.444;2023-03-14T04:03:43;0.40;;;0.40;;
22841;SDS011;11587;47.064;15.444;2023-03-14T04:06:10;0.40;;;0.40;;
22841;SDS011;11587;47.064;15.444;2023-03-14T04:08:37;0.40;;;0.40;;
22841;SDS011;11587;47.064;15.444;2023-03-14T04:11:03;0.40;;;0.40;;
22841;SDS011;11587;47.064;15.444;2023-03-14T04:13:30;0.40;;;0.40;;
22841;SDS011;11587;47.064;15.444;2023-03-14T04:15:56;0.40;;;0.40;;
22841;SDS011;11587;47.064;15.444;2023-03-14T04:18:22;0.40;;;0.40;;
22841;SDS011;11587;47.064;15.444;2023-03-14T04:20:52;0.40;;;0.40;;
22841;SDS011;11587;47.064;15.444;2023-03-14T04:23:18;0.40;;;0.40;;
22841;SDS011;11587;47.064;15.444;2023-03-14T04:25:44;0.40;;;0.40;;
22841;SDS011;11587;47.064;15.444;2023-03-14T04:28:10;0.40;;;0.40;;
22841;SDS011;11587;47.064;15.444;2023-03-14T04:30:36;0.40;;;0.40;;
22841;SDS011;11587;47.064;15.444;2023-03-14T04:33:02;0.40;;;0.40;;
22841;SDS011;11587;47.064;15.444;2023-03-14T04:35:30;0.40;;;0.40;;
22841;SDS011;11587;47.064;15.444;2023-03-14T04:37:56;0.40;;;0.40;;
22841;SDS011;11587;47.064;15.444;2023-03-14T04:40:22;0.40;;;0.40;;
22841;SDS011;11587;47.064;15.444;2023-03-14T04:42:48;0.40;;;0.40;;
22841;SDS011;11587;47.064;15.444;2023-03-14T04:45:14;0.40;;;0.40;;
22841;SDS011;11587;47.064;15.444;2023-03-14T04:47:40;0.40;;;0.40;;
22841;SDS011;11587;47.064;15.444;2023-03-14T04:50:06;0.40;;;0.40;;
22841;SDS011;11587;47.064;15.444;2023-03-14T04:52:32;0.40;;;0.40;;
22841;SDS011;11587;47.064;15.444;2023-03-14T04:54:58;0.40;;;0.40;;
22841;SDS011;11587;47.064;15.444;2023-03-14T04:57:24;0.40;;;0.40;;
22841;SDS011;11587;47.064;15.444;2023-03-14T04:59:50;0.40;;;0.40;;
22841;SDS011;11587;47.064;15.444;2023-03-14T05:02:16;0.30;;;0.30;;
22841;SDS011;11587;47.064;15.444;2023-03-14T05:04:42;0.38;;;0.38;;
22841;SDS011;11587;47.064;15.444;2023-03-14T05:07:08;0.30;;;0.30;;
22841;SDS011;11587;47.064;15.444;2023-03-14T05:09:34;0.20;;;0.20;;
22841;SDS011;11587;47.064;15.444;2023-03-14T05:12:00;0.20;;;0.20;;
22841;SDS011;11587;47.064;15.444;2023-03-14T05:14:26;0.20;;;0.20;;
22841;SDS011;11587;47.064;15.444;2023-03-14T05:16:52;0.20;;;0.20;;
22841;SDS011;11587;47.064;15.444;2023-03-14T05:19:18;0.20;;;0.20;;
22841;SDS011;11587;47.064;15.444;2023-03-14T05:21:44;0.20;;;0.20;;
22841;SDS011;11587;47.064;15.444;2023-03-14T05:24:10;0.20;;;0.20;;
22841;SDS011;11587;47.064;15.444;2023-03-14T05:26:37;0.20;;;0.20;;
22841;SDS011;11587;47.064;15.444;2023-03-14T05:29:03;0.20;;;0.20;;
22841;SDS011;11587;47.064;15.444;2023-03-14T05:31:29;0.20;;;0.20;;
22841;SDS011;11587;47.064;15.444;2023-03-14T05:33:55;0.20;;;0.20;;
22841;SDS011;11587;47.064;15.444;2023-03-14T05:36:21;0.20;;;0.20;;
22841;SDS011;11587;47.064;15.444;2023-03-14T05:38:47;0.20;;;0.20;;
22841;SDS011;11587;47.064;15.444;2023-03-14T05:41:13;0.20;;;0.20;;
22841;SDS011;11587;47.064;15.444;2023-03-14T05:43:39;0.20;;;0.20;;
22841;SDS011;11587;47.064;15.444;2023-03-14T05:46:05;0.20;;;0.20;;
22841;SDS011;11587;47.064;15.444;2023-03-14T05:48:31;0.20;;;0.20;;
22841;SDS011;11587;47.064;15.444;2023-03-14T05:50:57;0.20;;;0.20;;
22841;SDS011;11587;47.064;15.444;2023-03-14T05:53:24;0.20;;;0.20;;
22841;SDS011;11587;47.064;15.444;2023-03-14T05:55:53;0.20;;;0.20;;
22841;SDS011;11587;47.064;15.444;2023-03-14T05:58:20;0.20;;;0.20;;
22841;SDS011;11587;47.064;15.444;2023-03-14T06:00:46;0.20;;;0.20;;
22841;SDS011;11587;47.064;15.444;2023-03-14T06:03:12;0.20;;;0.20;;
22841;SDS011;11587;47.064;15.444;2023-03-14T06:05:38;0.20;;;0.20;;
22841;SDS011;11587;47.064;15.444;2023-03-14T06:08:04;0.20;;;0.20;;
22841;SDS011;11587;47.064;15.444;2023-03-14T06:10:30;0.20;;;0.20;;
22841;SDS011;11587;47.064;15.444;2023-03-14T06:12:56;0.20;;;0.20;;
22841;SDS011;11587;47.064;15.444;2023-03-14T06:15:22;0.20;;;0.20;;
22841;SDS011;11587;47.064;15.444;2023-03-14T06:17:48;0.20;;;0.20;;
22841;SDS011;11587;47.064;15.444;2023-03-14T06:20:14;0.20;;;0.20;;
22841;SDS011;11587;47.064;15.444;2023-03-14T06:22:40;0.20;;;0.20;;
22841;SDS011;11587;47.064;15.444;2023-03-14T06:25:07;0.20;;;0.20;;
22841;SDS011;11587;47.064;15.444;2023-03-14T06:27:33;0.20;;;0.20;;
22841;SDS011;11587;47.064;15.444;2023-03-14T06:29:59;0.20;;;0.20;;
22841;SDS011;11587;47.064;15.444;2023-03-14T06:32:25;0.20;;;0.20;;
22841;SDS011;11587;47.064;15.444;2023-03-14T06:34:51;0.10;;;0.10;;
22841;SDS011;11587;47.064;15.444;2023-03-14T06:37:18;0.20;;;0.20;;
22841;SDS011;11587;47.064;15.444;2023-03-14T06:39:44;0.20;;;0.20;;
22841;SDS011;11587;47.064;15.444;2023-03-14T06:42:10;0.20;;;0.20;;
22841;SDS011;11587;47.064;15.444;2023-03-14T06:44:36;0.15;;;0.15;;
22841;SDS011;11587;47.064;15.444;2023-03-14T06:47:02;0.20;;;0.20;;
22841;SDS011;11587;47.064;15.444;2023-03-14T06:49:28;0.20;;;0.20;;
22841;SDS011;11587;47.064;15.444;2023-03-14T06:51:54;0.20;;;0.20;;
22841;SDS011;11587;47.064;15.444;2023-03-14T06:54:20;0.13;;;0.13;;
22841;SDS011;11587;47.064;15.444;2023-03-14T06:56:46;0.10;;;0.10;;
22841;SDS011;11587;47.064;15.444;2023-03-14T06:59:12;0.20;;;0.20;;
22841;SDS011;11587;47.064;15.444;2023-03-14T07:01:38;0.20;;;0.20;;
22841;SDS011;11587;47.064;15.444;2023-03-14T07:04:05;0.10;;;0.10;;
22841;SDS011;11587;47.064;15.444;2023-03-14T07:06:32;0.10;;;0.10;;
22841;SDS011;11587;47.064;15.444;2023-03-14T07:08:58;0.10;;;0.10;;
22841;SDS011;11587;47.064;15.444;2023-03-14T07:11:25;0.10;;;0.10;;
22841;SDS011;11587;47.064;15.444;2023-03-14T07:13:51;0.20;;;0.20;;
22841;SDS011;11587;47.064;15.444;2023-03-14T07:16:17;0.10;;;0.10;;
22841;SDS011;11587;47.064;15.444;2023-03-14T07:18:43;0.20;;;0.20;;
22841;SDS011;11587;47.064;15.444;2023-03-14T07:21:09;0.20;;;0.20;;
22841;SDS011;11587;47.064;15.444;2023-03-14T07:23:35;0.20;;;0.20;;
22841;SDS011;11587;47.064;15.444;2023-03-14T07:26:01;0.20;;;0.20;;
22841;SDS011;11587;47.064;15.444;2023-03-14T07:28:27;0.10;;;0.10;;
22841;SDS011;11587;47.064;15.444;2023-03-14T07:30:54;0.20;;;0.20;;
22841;SDS011;11587;47.064;15.444;2023-03-14T07:33:20;0.10;;;0.10;;
22841;SDS011;11587;47.064;15.444;2023-03-14T07:35:46;0.20;;;0.20;;
22841;SDS011;11587;47.064;15.444;2023-03-14T07:38:13;0.25;;;0.25;;
22841;SDS011;11587;47.064;15.444;2023-03-14T07:40:39;0.20;;;0.20;;
22841;SDS011;11587;47.064;15.444;2023-03-14T07:43:05;0.20;;;0.20;;
22841;SDS011;11587;47.064;15.444;2023-03-14T07:45:31;0.20;;;0.20;;
22841;SDS011;11587;47.064;15.444;2023-03-14T07:47:57;0.20;;;0.20;;
22841;SDS011;11587;47.064;15.444;2023-03-14T07:50:26;0.20;;;0.20;;
22841;SDS011;11587;47.064;15.444;2023-03-14T07:52:53;0.20;;;0.20;;
22841;SDS011;11587;47.064;15.444;2023-03-14T07:55:19;0.30;;;0.30;;
22841;SDS011;11587;47.064;15.444;2023-03-14T07:57:45;0.20;;;0.20;;
22841;SDS011;11587;47.064;15.444;2023-03-14T08:00:11;0.30;;;0.30;;
22841;SDS011;11587;47.064;15.444;2023-03-14T08:02:39;0.20;;;0.20;;
22841;SDS011;11587;47.064;15.444;2023-03-14T08:05:05;0.20;;;0.20;;
22841;SDS011;11587;47.064;15.444;2023-03-14T08:07:31;0.20;;;0.20;;
22841;SDS011;11587;47.064;15.444;2023-03-14T08:09:57;0.20;;;0.20;;
22841;SDS011;11587;47.064;15.444;2023-03-14T08:12:23;0.20;;;0.20;;
22841;SDS011;11587;47.064;15.444;2023-03-14T08:14:49;0.20;;;0.20;;
22841;SDS011;11587;47.064;15.444;2023-03-14T08:17:15;0.20;;;0.20;;
22841;SDS011;11587;47.064;15.444;2023-03-14T08:19:41;0.20;;;0.20;;
22841;SDS011;11587;47.064;15.444;2023-03-14T08:22:07;0.20;;;0.20;;
22841;SDS011;11587;47.064;15.444;2023-03-14T08:24:34;0.20;;;0.20;;
22841;SDS011;11587;47.064;15.444;2023-03-14T08:27:00;0.20;;;0.20;;
22841;SDS011;11587;47.064;15.444;2023-03-14T08:29:26;0.20;;;0.20;;
22841;SDS011;11587;47.064;15.444;2023-03-14T08:31:52;0.20;;;0.20;;
22841;SDS011;11587;47.064;15.444;2023-03-14T08:34:19;0.20;;;0.20;;
22841;SDS011;11587;47.064;15.444;2023-03-14T08:36:46;0.10;;;0.10;;
22841;SDS011;11587;47.064;15.444;2023-03-14T08:39:12;0.20;;;0.20;;
22841;SDS011;11587;47.064;15.444;2023-03-14T08:41:38;0.20;;;0.20;;
22841;SDS011;11587;47.064;15.444;2023-03-14T08:44:06;0.10;;;0.10;;
22841;SDS011;11587;47.064;15.444;2023-03-14T08:46:32;0.20;;;0.20;;
22841;SDS011;11587;47.064;15.444;2023-03-14T08:48:58;0.10;;;0.10;;
22841;SDS011;11587;47.064;15.444;2023-03-14T08:51:24;0.20;;;0.20;;
22841;SDS011;11587;47.064;15.444;2023-03-14T08:53:50;0.20;;;0.20;;
22841;SDS011;11587;47.064;15.444;2023-03-14T08:56:16;0.17;;;0.17;;
22841;SDS011;11587;47.064;15.444;2023-03-14T08:58:42;0.10;;;0.10;;
22841;SDS011;11587;47.064;15.444;2023-03-14T09:01:09;0.20;;;0.20;;
22841;SDS011;11587;47.064;15.444;2023-03-14T09:03:35;0.10;;;0.10;;
22841;SDS011;11587;47.064;15.444;2023-03-14T09:06:02;0.10;;;0.10;;
22841;SDS011;11587;47.064;15.444;2023-03-14T09:08:29;0.10;;;0.10;;
22841;SDS011;11587;47.064;15.444;2023-03-14T09:10:55;0.10;;;0.10;;
22841;SDS011;11587;47.064;15.444;2023-03-14T09:13:22;0.10;;;0.10;;
22841;SDS011;11587;47.064;15.444;2023-03-14T09:15:51;0.10;;;0.10;;
22841;SDS011;11587;47.064;15.444;2023-03-14T09:18:17;0.10;;;0.10;;
22841;SDS011;11587;47.064;15.444;2023-03-14T09:20:43;0.10;;;0.10;;
22841;SDS011;11587;47.064;15.444;2023-03-14T09:23:09;0.10;;;0.10;;
22841;SDS011;11587;47.064;15.444;2023-03-14T09:25:35;0.10;;;0.10;;
22841;SDS011;11587;47.064;15.444;2023-03-14T09:28:02;0.10;;;0.10;;
22841;SDS011;11587;47.064;15.444;2023-03-14T09:30:28;0.20;;;0.20;;
22841;SDS011;11587;47.064;15.444;2023-03-14T09:32:54;0.10;;;0.10;;
22841;SDS011;11587;47.064;15.444;2023-03-14T09:35:20;0.10;;;0.10;;
22841;SDS011;11587;47.064;15.444;2023-03-14T09:37:46;0.10;;;0.10;;
22841;SDS011;11587;47.064;15.444;2023-03-14T09:40:13;0.10;;;0.10;;
22841;SDS011;11587;47.064;15.444;2023-03-14T09:42:40;0.20;;;0.20;;
22841;SDS011;11587;47.064;15.444;2023-03-14T09:45:11;0.10;;;0.10;;
22841;SDS011;11587;47.064;15.444;2023-03-14T09:47:38;0.20;;;0.20;;
22841;SDS011;11587;47.064;15.444;2023-03-14T09:50:10;0.10;;;0.10;;
22841;SDS011;11587;47.064;15.444;2023-03-14T09:52:37;0.10;;;0.10;;
22841;SDS011;11587;47.064;15.444;2023-03-14T09:55:15;0.20;;;0.20;;
22841;SDS011;11587;47.064;15.444;2023-03-14T09:57:41;0.20;;;0.20;;
22841;SDS011;11587;47.064;15.444;2023-03-14T10:00:18;0.20;;;0.20;;
22841;SDS011;11587;47.064;15.444;2023-03-14T10:02:49;0.20;;;0.20;;
22841;SDS011;11587;47.064;15.444;2023-03-14T10:05:17;0.20;;;0.20;;
22841;SDS011;11587;47.064;15.444;2023-03-14T10:07:43;0.20;;;0.20;;
22841;SDS011;11587;47.064;15.444;2023-03-14T10:10:19;0.10;;;0.10;;
22841;SDS011;11587;47.064;15.444;2023-03-14T10:13:28;0.20;;;0.20;;
22841;SDS011;11587;47.064;15.444;2023-03-14T10:15:35;0.10;;;0.10;;
22841;SDS011;11587;47.064;15.444;2023-03-14T10:18:01;0.10;;;0.10;;
22841;SDS011;11587;47.064;15.444;2023-03-14T10:20:38;0.10;;;0.10;;
22841;SDS011;11587;47.064;15.444;2023-03-14T10:25:39;0.20;;;0.20;;
22841;SDS011;11587;47.064;15.444;2023-03-14T10:28:11;0.20;;;0.20;;
22841;SDS011;11587;47.064;15.444;2023-03-14T10:30:48;0.10;;;0.10;;
22841;SDS011;11587;47.064;15.444;2023-03-14T10:33:21;0.10;;;0.10;;
22841;SDS011;11587;47.064;15.444;2023-03-14T10:36:32;0.10;;;0.10;;
22841;SDS011;11587;47.064;15.444;2023-03-14T10:38:35;0.10;;;0.10;;
22841;SDS011;11587;47.064;15.444;2023-03-14T10:41:01;0.10;;;0.10;;
22841;SDS011;11587;47.064;15.444;2023-03-14T10:43:31;0.10;;;0.10;;
22841;SDS011;11587;47.064;15.444;2023-03-14T10:45:58;0.10;;;0.10;;
22841;SDS011;11587;47.064;15.444;2023-03-14T10:48:37;0.10;;;0.10;;
22841;SDS011;11587;47.064;15.444;2023-03-14T10:51:09;0.10;;;0.10;;
22841;SDS011;11587;47.064;15.444;2023-03-14T10:53:41;0.10;;;0.10;;
22841;SDS011;11587;47.064;15.444;2023-03-14T10:56:11;0.10;;;0.10;;
22841;SDS011;11587;47.064;15.444;2023-03-14T10:58:44;0.10;;;0.10;;
22841;SDS011;11587;47.064;15.444;2023-03-14T11:03:51;0.10;;;0.10;;
22841;SDS011;11587;47.064;15.444;2023-03-14T11:06:21;0.10;;;0.10;;
22841;SDS011;11587;47.064;15.444;2023-03-14T11:08:57;0.10;;;0.10;;
22841;SDS011;11587;47.064;15.444;2023-03-14T11:11:29;0.10;;;0.10;;
22841;SDS011;11587;47.064;15.444;2023-03-14T11:19:12;0.10;;;0.10;;
22841;SDS011;11587;47.064;15.444;2023-03-14T11:21:50;0.10;;;0.10;;
22841;SDS011;11587;47.064;15.444;2023-03-14T11:27:04;0.20;;;0.20;;
22841;SDS011;11587;47.064;15.444;2023-03-14T11:29:39;0.10;;;0.10;;
22841;SDS011;11587;47.064;15.444;2023-03-14T11:34:53;0.10;;;0.10;;
22841;SDS011;11587;47.064;15.444;2023-03-14T11:37:33;0.10;;;0.10;;
22841;SDS011;11587;47.064;15.444;2023-03-14T11:40:08;0.10;;;0.10;;
22841;SDS011;11587;47.064;15.444;2023-03-14T11:42:37;0.10;;;0.10;;
22841;SDS011;11587;47.064;15.444;2023-03-14T11:45:04;0.10;;;0.10;;
22841;SDS011;11587;47.064;15.444;2023-03-14T11:47:39;0.03;;;0.03;;
22841;SDS011;11587;47.064;15.444;2023-03-14T11:50:18;0.10;;;0.10;;
22841;SDS011;11587;47.064;15.444;2023-03-14T11:55:43;0.10;;;0.10;;
22841;SDS011;11587;47.064;15.444;2023-03-14T11:58:22;0.10;;;0.10;;
22841;SDS011;11587;47.064;15.444;2023-03-14T12:00:49;0.10;;;0.10;;
22841;SDS011;11587;47.064;15.444;2023-03-14T12:06:17;0.10;;;0.10;;
22841;SDS011;11587;47.064;15.444;2023-03-14T12:08:50;0.10;;;0.10;;
22841;SDS011;11587;47.064;15.444;2023-03-14T12:11:23;0.10;;;0.10;;
22841;SDS011;11587;47.064;15.444;2023-03-14T12:13:51;0.10;;;0.10;;
22841;SDS011;11587;47.064;15.444;2023-03-14T12:18:50;0.10;;;0.10;;
22841;SDS011;11587;47.064;15.444;2023-03-14T12:21:16;0.10;;;0.10;;
22841;SDS011;11587;47.064;15.444;2023-03-14T12:28:37;0.10;;;0.10;;
22841;SDS011;11587;47.064;15.444;2023-03-14T12:33:55;0.10;;;0.10;;
22841;SDS011;11587;47.064;15.444;2023-03-14T12:41:44;0.10;;;0.10;;
22841;SDS011;11587;47.064;15.444;2023-03-14T12:44:46;0.10;;;0.10;;
22841;SDS011;11587;47.064;15.444;2023-03-14T12:49:47;0.10;;;0.10;;
22841;SDS011;11587;47.064;15.444;2023-03-14T12:52:15;0.10;;;0.10;;
22841;SDS011;11587;47.064;15.444;2023-03-14T12:54:53;0.10;;;0.10;;
22841;SDS011;11587;47.064;15.444;2023-03-14T12:59:58;0.10;;;0.10;;
22841;SDS011;11587;47.064;15.444;2023-03-14T13:02:26;0.10;;;0.10;;
22841;SDS011;11587;47.064;15.444;2023-03-14T13:05:09;0.10;;;0.10;;
22841;SDS011;11587;47.064;15.444;2023-03-14T13:15:46;0.20;;;0.20;;
22841;SDS011;11587;47.064;15.444;2023-03-14T13:21:02;0.20;;;0.20;;
22841;SDS011;11587;47.064;15.444;2023-03-14T13:23:32;0.25;;;0.20;;
22841;SDS011;11587;47.064;15.444;2023-03-14T13:26:00;0.20;;;0.20;;
22841;SDS011;11587;47.064;15.444;2023-03-14T13:28:27;0.20;;;0.20;;
22841;SDS011;11587;47.064;15.444;2023-03-14T13:30:56;0.20;;;0.20;;
22841;SDS011;11587;47.064;15.444;2023-03-14T13:33:23;0.10;;;0.10;;
22841;SDS011;11587;47.064;15.444;2023-03-14T13:35:54;0.20;;;0.20;;
22841;SDS011;11587;47.064;15.444;2023-03-14T13:38:25;0.20;;;0.20;;
22841;SDS011;11587;47.064;15.444;2023-03-14T13:40:51;0.20;;;0.20;;
22841;SDS011;11587;47.064;15.444;2023-03-14T13:43:25;0.20;;;0.20;;
22841;SDS011;11587;47.064;15.444;2023-03-14T13:45:56;0.30;;;0.30;;
22841;SDS011;11587;47.064;15.444;2023-03-14T13:48:26;0.20;;;0.20;;
22841;SDS011;11587;47.064;15.444;2023-03-14T13:51:04;0.10;;;0.10;;
22841;SDS011;11587;47.064;15.444;2023-03-14T13:53:31;0.20;;;0.20;;
22841;SDS011;11587;47.064;15.444;2023-03-14T13:56:00;0.10;;;0.10;;
22841;SDS011;11587;47.064;15.444;2023-03-14T13:58:28;0.10;;;0.10;;
22841;SDS011;11587;47.064;15.444;2023-03-14T14:01:16;0.20;;;0.20;;
22841;SDS011;11587;47.064;15.444;2023-03-14T14:03:41;0.10;;;0.10;;
22841;SDS011;11587;47.064;15.444;2023-03-14T14:09:11;0.10;;;0.10;;
22841;SDS011;11587;47.064;15.444;2023-03-14T14:14:04;0.10;;;0.10;;
22841;SDS011;11587;47.064;15.444;2023-03-14T14:16:31;0.10;;;0.10;;
22841;SDS011;11587;47.064;15.444;2023-03-14T14:18:57;0.10;;;0.10;;
22841;SDS011;11587;47.064;15.444;2023-03-14T14:21:25;0.10;;;0.10;;
22841;SDS011;11587;47.064;15.444;2023-03-14T14:23:51;0.20;;;0.20;;
22841;SDS011;11587;47.064;15.444;2023-03-14T14:26:18;0.13;;;0.13;;
22841;SDS011;11587;47.064;15.444;2023-03-14T14:28:45;0.10;;;0.10;;
22841;SDS011;11587;47.064;15.444;2023-03-14T14:33:44;0.10;;;0.10;;
22841;SDS011;11587;47.064;15.444;2023-03-14T14:36:44;0.10;;;0.10;;
22841;SDS011;11587;47.064;15.444;2023-03-14T14:39:04;0.10;;;0.10;;
22841;SDS011;11587;47.064;15.444;2023-03-14T14:41:32;0.10;;;0.10;;
22841;SDS011;11587;47.064;15.444;2023-03-14T14:43:59;0.10;;;0.10;;
22841;SDS011;11587;47.064;15.444;2023-03-14T14:46:26;0.10;;;0.10;;
22841;SDS011;11587;47.064;15.444;2023-03-14T14:49:10;0.10;;;0.10;;
22841;SDS011;11587;47.064;15.444;2023-03-14T14:51:44;0.10;;;0.10;;
22841;SDS011;11587;47.064;15.444;2023-03-14T14:54:11;0.10;;;0.10;;
22841;SDS011;11587;47.064;15.444;2023-03-14T14:56:38;0.10;;;0.10;;
22841;SDS011;11587;47.064;15.444;2023-03-14T14:59:05;0.10;;;0.10;;
22841;SDS011;11587;47.064;15.444;2023-03-14T15:01:38;0.10;;;0.10;;
22841;SDS011;11587;47.064;15.444;2023-03-14T15:04:11;0.10;;;0.10;;
22841;SDS011;11587;47.064;15.444;2023-03-14T15:06:38;0.10;;;0.10;;
22841;SDS011;11587;47.064;15.444;2023-03-14T15:09:05;0.10;;;0.10;;
22841;SDS011;11587;47.064;15.444;2023-03-14T15:11:31;0.10;;;0.10;;
22841;SDS011;11587;47.064;15.444;2023-03-14T15:13:57;0.10;;;0.10;;
22841;SDS011;11587;47.064;15.444;2023-03-14T15:16:23;0.13;;;0.13;;
22841;SDS011;11587;47.064;15.444;2023-03-14T15:18:54;0.10;;;0.10;;
22841;SDS011;11587;47.064;15.444;2023-03-14T15:21:20;0.10;;;0.10;;
22841;SDS011;11587;47.064;15.444;2023-03-14T15:23:47;0.10;;;0.10;;
22841;SDS011;11587;47.064;15.444;2023-03-14T15:26:13;0.10;;;0.10;;
22841;SDS011;11587;47.064;15.444;2023-03-14T15:28:40;0.10;;;0.10;;
22841;SDS011;11587;47.064;15.444;2023-03-14T15:31:10;0.10;;;0.10;;
22841;SDS011;11587;47.064;15.444;2023-03-14T15:33:36;0.10;;;0.10;;
22841;SDS011;11587;47.064;15.444;2023-03-14T15:36:13;0.10;;;0.10;;
22841;SDS011;11587;47.064;15.444;2023-03-14T15:38:40;0.10;;;0.10;;
22841;SDS011;11587;47.064;15.444;2023-03-14T15:41:06;0.10;;;0.10;;
22841;SDS011;11587;47.064;15.444;2023-03-14T15:43:32;0.10;;;0.10;;
22841;SDS011;11587;47.064;15.444;2023-03-14T15:45:59;0.20;;;0.20;;